createdAt,value
2022-11-03T00:02:25.114Z,98846.00
2022-11-03T00:04:54.300Z,98850.00
2022-11-03T00:07:24.711Z,98851.00
2022-11-03T00:09:53.866Z,98858.00
2022-11-03T00:12:23.153Z,98862.00
2022-11-03T00:14:52.283Z,98871.00
2022-11-03T00:17:21.459Z,98870.00
2022-11-03T00:19:50.661Z,98868.00
2022-11-03T00:22:19.775Z,98877.00
2022-11-03T00:24:48.886Z,98881.00
2022-11-03T00:27:18.055Z,98891.00
2022-11-03T00:29:47.171Z,98900.00
2022-11-03T00:32:16.342Z,98896.00
2022-11-03T00:34:45.739Z,98901.00
2022-11-03T00:37:14.859Z,98902.00
2022-11-03T00:39:44.031Z,98904.00
2022-11-03T00:42:13.189Z,98901.00
2022-11-03T00:44:42.325Z,98906.00
2022-11-03T00:47:11.426Z,98906.00
2022-11-03T00:49:40.597Z,98901.00
2022-11-03T00:52:09.713Z,98906.00
2022-11-03T00:54:38.854Z,98913.00
2022-11-03T00:57:08.007Z,98914.00
2022-11-03T00:59:37.495Z,98923.00
2022-11-03T01:02:06.830Z,98925.00
2022-11-03T01:04:54.136Z,98926.00
2022-11-03T01:07:23.410Z,98921.00
2022-11-03T01:09:52.535Z,98931.00
2022-11-03T01:12:21.948Z,98943.00
2022-11-03T01:14:54.274Z,98952.00
2022-11-03T01:17:27.481Z,98958.00
2022-11-03T01:19:57.222Z,98956.00
2022-11-03T01:22:26.807Z,98952.00
2022-11-03T01:24:55.903Z,98960.00
2022-11-03T01:27:25.077Z,98970.00
2022-11-03T01:29:54.227Z,98966.00
2022-11-03T01:32:23.333Z,98970.00
2022-11-03T01:34:52.520Z,98978.00
2022-11-03T01:37:21.622Z,98981.00
2022-11-03T01:39:50.780Z,98982.00
2022-11-03T01:42:19.959Z,98983.00
2022-11-03T01:44:50.487Z,98993.00
2022-11-03T01:47:33.724Z,99001.00
2022-11-03T01:50:20.942Z,98998.00
2022-11-03T01:52:59.913Z,98998.00
2022-11-03T01:55:37.510Z,99003.00
2022-11-03T01:58:35.256Z,99004.00
2022-11-03T02:01:08.303Z,99001.00
2022-11-03T02:03:53.545Z,99007.00
2022-11-03T02:06:26.721Z,99006.00
2022-11-03T02:09:08.486Z,99010.00
2022-11-03T02:11:58.494Z,99012.00
2022-11-03T02:14:29.645Z,99019.00
2022-11-03T02:17:05.089Z,99017.00
2022-11-03T02:19:48.995Z,99022.00
2022-11-03T02:23:01.255Z,99026.00
2022-11-03T02:25:46.710Z,99022.00
2022-11-03T02:28:26.417Z,99030.00
2022-11-03T02:31:13.781Z,99032.00
2022-11-03T02:34:01.189Z,99030.00
2022-11-03T02:36:51.036Z,99036.00
2022-11-03T02:39:35.762Z,99029.00
2022-11-03T02:42:06.983Z,99031.00
2022-11-03T02:44:38.854Z,99030.00
2022-11-03T02:47:15.158Z,99035.00
2022-11-03T02:52:47.063Z,99028.00
2022-11-03T02:55:57.259Z,99035.00
2022-11-03T02:58:42.059Z,99028.00
2022-11-03T03:01:26.099Z,99031.00
2022-11-03T03:04:10.691Z,99029.00
2022-11-03T03:07:07.636Z,99026.00
2022-11-03T03:10:06.041Z,99026.00
2022-11-03T03:12:43.200Z,99025.00
2022-11-03T03:15:12.523Z,99032.00
2022-11-03T03:17:52.145Z,99022.00
2022-11-03T03:21:02.510Z,99024.00
2022-11-03T03:23:46.031Z,99019.00
2022-11-03T03:26:40.290Z,99012.00
2022-11-03T03:29:27.854Z,99005.00
2022-11-03T03:32:02.090Z,99011.00
2022-11-03T03:34:35.998Z,99009.00
2022-11-03T03:37:08.581Z,99004.00
2022-11-03T03:39:42.871Z,99005.00
2022-11-03T03:42:16.333Z,98998.00
2022-11-03T03:44:47.918Z,98999.00
2022-11-03T03:47:43.550Z,98995.00
2022-11-03T03:50:13.075Z,98996.00
2022-11-03T03:52:42.424Z,98986.00
2022-11-03T03:57:59.494Z,98981.00
2022-11-03T04:00:29.647Z,98981.00
2022-11-03T04:03:02.118Z,98975.00
2022-11-03T04:05:31.255Z,98971.00
2022-11-03T04:08:00.491Z,98965.00
2022-11-03T04:10:29.677Z,98962.00
2022-11-03T04:13:17.155Z,98957.00
2022-11-03T04:16:04.490Z,98961.00
2022-11-03T04:18:51.776Z,98954.00
2022-11-03T04:21:39.330Z,98950.00
2022-11-03T04:24:08.638Z,98946.00
2022-11-03T04:26:37.801Z,98939.00
2022-11-03T04:29:12.330Z,98936.00
2022-11-03T04:31:41.506Z,98925.00
2022-11-03T04:34:14.819Z,98925.00
2022-11-03T04:36:43.991Z,98926.00
2022-11-03T04:39:21.238Z,98920.00
2022-11-03T04:41:50.531Z,98911.00
2022-11-03T04:44:20.132Z,98915.00
2022-11-03T04:46:49.664Z,98910.00
2022-11-03T04:49:25.146Z,98907.00
2022-11-03T04:51:54.346Z,98903.00
2022-11-03T04:54:25.287Z,98892.00
2022-11-03T04:56:54.555Z,98894.00
2022-11-03T04:59:24.987Z,98895.00
2022-11-03T05:01:54.360Z,98890.00
2022-11-03T05:04:23.744Z,98878.00
2022-11-03T05:06:55.101Z,98879.00
2022-11-03T05:09:32.668Z,98886.00
2022-11-03T05:12:01.938Z,98877.00
2022-11-03T05:14:33.983Z,98866.00
2022-11-03T05:17:17.045Z,98865.00
2022-11-03T05:19:46.276Z,98861.00
2022-11-03T05:22:23.444Z,98856.00
2022-11-03T05:25:02.083Z,98849.00
2022-11-03T05:27:31.617Z,98851.00
2022-11-03T05:30:02.381Z,98847.00
2022-11-03T05:32:35.526Z,98842.00
2022-11-03T05:35:05.190Z,98833.00
2022-11-03T05:37:37.108Z,98827.00
2022-11-03T05:40:28.271Z,98826.00
2022-11-03T05:43:04.168Z,98827.00
2022-11-03T05:45:38.135Z,98824.00
2022-11-03T05:48:39.510Z,98821.00
2022-11-03T05:51:30.927Z,98808.00
2022-11-03T05:54:04.441Z,98802.00
2022-11-03T05:56:36.138Z,98801.00
2022-11-03T05:59:08.792Z,98794.00
2022-11-03T06:01:41.879Z,98784.00
2022-11-03T06:04:41.392Z,98780.00
2022-11-03T06:07:28.141Z,98780.00
2022-11-03T06:09:57.561Z,98776.00
2022-11-03T06:12:27.438Z,98777.00
2022-11-03T06:14:56.570Z,98774.00
2022-11-03T06:17:29.683Z,98770.00
2022-11-03T06:20:01.396Z,98764.00
2022-11-03T06:22:37.577Z,98764.00
2022-11-03T06:25:38.241Z,98756.00
2022-11-03T06:28:19.230Z,98756.00
2022-11-03T06:30:50.087Z,98752.00
2022-11-03T06:33:35.110Z,98744.00
2022-11-03T06:36:21.880Z,98742.00
2022-11-03T06:39:01.686Z,98736.00
2022-11-03T06:41:37.234Z,98737.00
2022-11-03T06:44:29.329Z,98733.00
2022-11-03T06:47:14.749Z,98734.00
2022-11-03T06:49:44.753Z,98731.00
2022-11-03T06:52:36.445Z,98723.00
2022-11-03T06:55:16.828Z,98724.00
2022-11-03T06:57:50.191Z,98726.00
2022-11-03T07:00:36.218Z,98725.00
2022-11-03T07:03:34.419Z,98717.00
2022-11-03T07:06:12.580Z,98727.00
2022-11-03T07:08:44.809Z,98722.00
2022-11-03T07:11:23.920Z,98724.00
2022-11-03T07:14:10.667Z,98717.00
2022-11-03T07:17:17.605Z,98719.00
2022-11-03T07:19:48.121Z,98720.00
2022-11-03T07:22:28.077Z,98710.00
2022-11-03T07:25:08.067Z,98712.00
2022-11-03T07:27:40.215Z,98714.00
2022-11-03T07:30:25.364Z,98703.00
2022-11-03T07:33:01.540Z,98702.00
2022-11-03T07:36:13.217Z,98702.00
2022-11-03T07:38:31.636Z,98699.00
2022-11-03T07:41:01.634Z,98692.00
2022-11-03T07:43:35.723Z,98690.00
2022-11-03T07:46:07.865Z,98695.00
2022-11-03T07:48:48.538Z,98693.00
2022-11-03T07:51:46.830Z,98693.00
2022-11-03T07:54:29.643Z,98691.00
2022-11-03T07:57:33.819Z,98693.00
2022-11-03T08:00:21.985Z,98696.00
2022-11-03T08:02:59.457Z,98691.00
2022-11-03T08:05:28.618Z,98693.00
2022-11-03T08:07:57.755Z,98696.00
2022-11-03T08:10:26.851Z,98691.00
2022-11-03T08:12:55.951Z,98689.00
2022-11-03T08:15:25.086Z,98691.00
2022-11-03T08:17:56.243Z,98690.00
2022-11-03T08:20:25.549Z,98690.00
2022-11-03T08:23:24.224Z,98695.00
2022-11-03T08:25:44.193Z,98693.00
2022-11-03T08:28:13.458Z,98691.00
2022-11-03T08:30:42.629Z,98687.00
2022-11-03T08:33:11.793Z,98690.00
2022-11-03T08:35:40.926Z,98688.00
2022-11-03T08:38:10.271Z,98697.00
2022-11-03T08:40:39.592Z,98698.00
2022-11-03T08:43:08.696Z,98698.00
2022-11-03T08:45:37.975Z,98700.00
2022-11-03T08:48:07.752Z,98693.00
2022-11-03T08:50:37.093Z,98688.00
2022-11-03T08:53:06.298Z,98687.00
2022-11-03T08:55:35.395Z,98685.00
2022-11-03T08:58:06.641Z,98684.00
2022-11-03T09:00:40.773Z,98685.00
2022-11-03T09:03:10.503Z,98690.00
2022-11-03T09:05:40.183Z,98683.00
2022-11-03T09:10:59.012Z,98694.00
2022-11-03T09:13:28.139Z,98692.00
2022-11-03T09:15:57.290Z,98700.00
2022-11-03T09:18:26.532Z,98691.00
2022-11-03T09:20:55.628Z,98700.00
2022-11-03T09:23:24.700Z,98697.00
2022-11-03T09:25:53.830Z,98694.00
2022-11-03T09:28:22.895Z,98695.00
2022-11-03T09:30:52.300Z,98704.00
2022-11-03T09:33:21.434Z,98704.00
2022-11-03T09:35:50.553Z,98704.00
2022-11-03T09:38:20.042Z,98709.00
2022-11-03T09:43:23.399Z,98708.00
2022-11-03T09:45:52.664Z,98714.00
2022-11-03T09:48:22.154Z,98714.00
2022-11-03T09:50:56.061Z,98719.00
2022-11-03T09:53:25.323Z,98710.00
2022-11-03T09:55:54.415Z,98710.00
2022-11-03T09:58:24.420Z,98711.00
2022-11-03T10:00:53.701Z,98715.00
2022-11-03T10:03:22.834Z,98718.00
2022-11-03T10:05:51.956Z,98719.00
2022-11-03T10:08:29.993Z,98726.00
2022-11-03T10:11:01.762Z,98727.00
2022-11-03T10:13:40.203Z,98730.00
2022-11-03T10:16:13.632Z,98732.00
2022-11-03T10:18:43.657Z,98732.00
2022-11-03T10:21:29.393Z,98739.00
2022-11-03T10:23:58.692Z,98731.00
2022-11-03T10:26:28.075Z,98736.00
2022-11-03T10:29:05.297Z,98747.00
2022-11-03T10:31:41.730Z,98750.00
2022-11-03T10:34:37.637Z,98749.00
2022-11-03T10:37:13.502Z,98752.00
2022-11-03T10:39:42.677Z,98747.00
2022-11-03T10:42:33.597Z,98755.00
2022-11-03T10:45:22.774Z,98756.00
2022-11-03T10:48:09.200Z,98760.00
2022-11-03T10:50:41.333Z,98762.00
2022-11-03T10:53:23.750Z,98769.00
2022-11-03T10:55:52.910Z,98763.00
2022-11-03T10:58:23.230Z,98768.00
2022-11-03T11:00:52.433Z,98768.00
2022-11-03T11:03:21.729Z,98778.00
2022-11-03T11:05:51.378Z,98781.00
2022-11-03T11:08:25.550Z,98782.00
2022-11-03T11:10:56.352Z,98778.00
2022-11-03T11:13:32.046Z,98783.00
2022-11-03T11:16:03.965Z,98779.00
2022-11-03T11:18:33.953Z,98784.00
2022-11-03T11:21:21.427Z,98784.00
2022-11-03T11:23:53.612Z,98781.00
2022-11-03T11:26:30.497Z,98797.00
2022-11-03T11:29:12.140Z,98796.00
2022-11-03T11:31:43.000Z,98797.00
2022-11-03T11:34:18.175Z,98794.00
2022-11-03T11:37:07.411Z,98796.00
2022-11-03T11:39:42.025Z,98798.00
2022-11-03T11:45:03.903Z,98807.00
2022-11-03T11:47:52.737Z,98812.00
2022-11-03T11:50:32.664Z,98816.00
2022-11-03T11:53:09.379Z,98822.00
2022-11-03T11:55:53.460Z,98826.00
2022-11-03T11:58:45.909Z,98831.00
2022-11-03T12:01:42.391Z,98843.00
2022-11-03T12:04:28.756Z,98841.00
2022-11-03T12:06:58.639Z,98840.00
2022-11-03T12:09:29.723Z,98841.00
2022-11-03T12:12:08.354Z,98844.00
2022-11-03T12:14:42.288Z,98854.00
2022-11-03T12:17:20.266Z,98852.00
2022-11-03T12:19:53.626Z,98859.00
2022-11-03T12:22:25.865Z,98861.00
2022-11-03T12:24:55.929Z,98864.00
2022-11-03T12:27:28.014Z,98874.00
2022-11-03T12:30:20.927Z,98881.00
2022-11-03T12:32:50.315Z,98875.00
2022-11-03T12:35:19.632Z,98876.00
2022-11-03T12:37:48.880Z,98881.00
2022-11-03T12:40:18.215Z,98883.00
2022-11-03T12:42:47.441Z,98884.00
2022-11-03T12:45:16.685Z,98894.00
2022-11-03T12:47:47.013Z,98885.00
2022-11-03T12:50:16.261Z,98887.00
2022-11-03T12:52:45.456Z,98896.00
2022-11-03T12:55:14.796Z,98898.00
2022-11-03T12:57:46.673Z,98906.00
2022-11-03T13:00:18.623Z,98909.00
2022-11-03T13:02:48.137Z,98910.00
2022-11-03T13:05:17.488Z,98913.00
2022-11-03T13:07:46.704Z,98912.00
2022-11-03T13:10:15.946Z,98917.00
2022-11-03T13:12:46.204Z,98922.00
2022-11-03T13:15:16.824Z,98927.00
2022-11-03T13:18:07.575Z,98926.00
2022-11-03T13:20:36.905Z,98931.00
2022-11-03T13:23:07.164Z,98930.00
2022-11-03T13:25:36.611Z,98937.00
2022-11-03T13:28:06.737Z,98932.00
2022-11-03T13:30:35.988Z,98937.00
2022-11-03T13:33:05.508Z,98939.00
2022-11-03T13:35:34.954Z,98944.00
2022-11-03T13:38:04.139Z,98943.00
2022-11-03T13:40:55.702Z,98948.00
2022-11-03T13:43:22.592Z,98951.00
2022-11-03T13:45:51.727Z,98948.00
2022-11-03T13:51:12.903Z,98944.00
2022-11-03T13:56:32.111Z,98942.00
2022-11-03T14:07:15.155Z,98944.00
2022-11-03T14:09:44.400Z,98947.00
2022-11-03T14:12:31.691Z,98952.00
2022-11-03T14:15:02.888Z,98952.00
2022-11-03T14:17:33.802Z,98958.00
2022-11-03T14:20:04.980Z,98957.00
2022-11-03T14:22:34.880Z,98953.00
2022-11-03T14:25:04.785Z,98956.00
2022-11-03T14:27:33.982Z,98947.00
2022-11-03T14:30:03.240Z,98952.00
2022-11-03T14:32:32.674Z,98954.00
2022-11-03T14:35:01.917Z,98954.00
2022-11-03T14:37:31.183Z,98954.00
2022-11-03T14:40:00.348Z,98960.00
2022-11-03T14:42:29.487Z,98955.00
2022-11-03T14:44:58.671Z,98949.00
2022-11-03T14:47:29.310Z,98947.00
2022-11-03T14:49:58.451Z,98948.00
2022-11-03T14:52:27.582Z,98950.00
2022-11-03T14:54:56.798Z,98944.00
2022-11-03T14:57:26.130Z,98937.00
2022-11-03T14:59:56.315Z,98950.00
2022-11-03T15:02:25.898Z,98948.00
2022-11-03T15:04:55.018Z,98955.00
2022-11-03T15:07:24.078Z,98946.00
2022-11-03T15:09:53.345Z,98950.00
2022-11-03T15:12:22.394Z,98949.00
2022-11-03T15:14:52.011Z,98947.00
2022-11-03T15:17:21.121Z,98950.00
2022-11-03T15:19:50.282Z,98940.00
2022-11-03T15:22:20.212Z,98945.00
2022-11-03T15:27:39.880Z,98941.00
2022-11-03T15:30:10.201Z,98944.00
2022-11-03T15:32:39.428Z,98938.00
2022-11-03T15:35:08.969Z,98934.00
2022-11-03T15:37:38.079Z,98937.00
2022-11-03T15:40:08.686Z,98938.00
2022-11-03T15:42:37.748Z,98943.00
2022-11-03T15:45:08.072Z,98940.00
2022-11-03T15:51:37.164Z,98943.00
2022-11-03T15:54:06.281Z,98941.00
2022-11-03T15:56:35.631Z,98940.00
2022-11-03T15:59:04.742Z,98943.00
2022-11-03T16:01:35.662Z,98944.00
2022-11-03T16:04:04.952Z,98941.00
2022-11-03T16:07:01.734Z,98934.00
2022-11-03T16:09:23.347Z,98932.00
2022-11-03T16:11:52.418Z,98934.00
2022-11-03T16:14:21.570Z,98930.00
2022-11-03T16:16:50.704Z,98933.00
2022-11-03T16:19:19.915Z,98937.00
2022-11-03T16:21:49.007Z,98937.00
2022-11-03T16:24:18.140Z,98938.00
2022-11-03T16:26:47.233Z,98929.00
2022-11-03T16:29:16.273Z,98932.00
2022-11-03T16:31:45.343Z,98933.00
2022-11-03T16:34:14.431Z,98920.00
2022-11-03T16:36:43.584Z,98929.00
2022-11-03T16:39:12.892Z,98927.00
2022-11-03T16:41:42.033Z,98927.00
2022-11-03T16:44:11.089Z,98922.00
2022-11-03T16:46:40.189Z,98928.00
2022-11-03T16:49:09.262Z,98941.00
2022-11-03T16:51:38.281Z,98929.00
2022-11-03T16:54:07.869Z,98940.00
2022-11-03T16:56:37.430Z,98939.00
2022-11-03T16:59:07.402Z,98938.00
2022-11-03T17:01:36.630Z,98929.00
2022-11-03T17:04:06.436Z,98937.00
2022-11-03T17:06:35.421Z,98945.00
2022-11-03T17:09:06.395Z,98940.00
2022-11-03T17:11:38.490Z,98937.00
2022-11-03T17:14:14.323Z,98937.00
2022-11-03T17:16:46.263Z,98940.00
2022-11-03T17:19:16.855Z,98935.00
2022-11-03T17:21:46.010Z,98937.00
2022-11-03T17:24:15.058Z,98939.00
2022-11-03T17:26:54.425Z,98934.00
2022-11-03T17:29:35.933Z,98938.00
2022-11-03T17:32:14.613Z,98938.00
2022-11-03T17:34:44.084Z,98939.00
2022-11-03T17:37:13.176Z,98939.00
2022-11-03T17:39:42.440Z,98938.00
2022-11-03T17:42:28.171Z,98938.00
2022-11-03T17:44:58.777Z,98934.00
2022-11-03T17:47:27.937Z,98923.00
2022-11-03T17:49:57.394Z,98922.00
2022-11-03T17:52:32.595Z,98922.00
2022-11-03T17:55:05.640Z,98908.00
2022-11-03T17:57:35.038Z,98917.00
2022-11-03T18:00:06.300Z,98916.00
2022-11-03T18:02:38.759Z,98916.00
2022-11-03T18:05:16.798Z,98919.00
2022-11-03T18:07:47.643Z,98914.00
2022-11-03T18:10:16.976Z,98913.00
2022-11-03T18:13:08.392Z,98915.00
2022-11-03T18:15:40.111Z,98914.00
2022-11-03T18:18:17.866Z,98921.00
2022-11-03T18:20:54.139Z,98908.00
2022-11-03T18:23:28.680Z,98910.00
2022-11-03T18:25:57.818Z,98907.00
2022-11-03T18:28:27.220Z,98908.00
2022-11-03T18:30:58.191Z,98902.00
2022-11-03T18:33:33.253Z,98897.00
2022-11-03T18:36:07.852Z,98889.00
2022-11-03T18:38:41.064Z,98888.00
2022-11-03T18:41:39.768Z,98891.00
2022-11-03T18:44:26.323Z,98887.00
2022-11-03T18:46:56.470Z,98885.00
2022-11-03T18:49:28.311Z,98884.00
2022-11-03T18:52:05.757Z,98882.00
2022-11-03T18:54:37.006Z,98880.00
2022-11-03T18:57:06.171Z,98880.00
2022-11-03T18:59:40.439Z,98878.00
2022-11-03T19:02:21.191Z,98882.00
2022-11-03T19:04:50.888Z,98878.00
2022-11-03T19:07:36.937Z,98882.00
2022-11-03T19:10:17.408Z,98887.00
2022-11-03T19:12:47.672Z,98877.00
2022-11-03T19:15:26.903Z,98883.00
2022-11-03T19:18:00.478Z,98878.00
2022-11-03T19:20:29.854Z,98887.00
2022-11-03T19:22:58.915Z,98881.00
2022-11-03T19:25:28.011Z,98876.00
2022-11-03T19:27:57.536Z,98881.00
2022-11-03T19:30:26.614Z,98878.00
2022-11-03T19:32:58.250Z,98884.00
2022-11-03T19:35:36.381Z,98882.00
2022-11-03T19:38:13.887Z,98885.00
2022-11-03T19:41:04.351Z,98884.00
2022-11-03T19:43:34.973Z,98880.00
2022-11-03T19:46:05.978Z,98876.00
2022-11-03T19:48:36.215Z,98877.00
2022-11-03T19:51:08.361Z,98877.00
2022-11-03T19:53:38.280Z,98870.00
2022-11-03T19:56:08.369Z,98874.00
2022-11-03T19:58:38.320Z,98879.00
2022-11-03T20:01:08.815Z,98875.00
2022-11-03T20:03:39.597Z,98879.00
2022-11-03T20:06:11.219Z,98874.00
2022-11-03T20:08:40.939Z,98870.00
2022-11-03T20:11:10.010Z,98876.00
2022-11-03T20:13:44.846Z,98876.00
2022-11-03T20:16:16.709Z,98873.00
2022-11-03T20:18:46.236Z,98879.00
2022-11-03T20:21:21.058Z,98878.00
2022-11-03T20:23:52.518Z,98880.00
2022-11-03T20:26:25.146Z,98883.00
2022-11-03T20:28:57.849Z,98885.00
2022-11-03T20:31:27.181Z,98888.00
2022-11-03T20:33:56.274Z,98884.00
2022-11-03T20:36:25.442Z,98887.00
2022-11-03T20:39:00.154Z,98886.00
2022-11-03T20:41:32.356Z,98892.00
2022-11-03T20:44:01.762Z,98897.00
2022-11-03T20:46:34.673Z,98892.00
2022-11-03T20:49:03.864Z,98890.00
2022-11-03T20:51:46.191Z,98885.00
2022-11-03T20:54:22.269Z,98883.00
2022-11-03T20:56:51.890Z,98879.00
2022-11-03T20:59:25.615Z,98881.00
2022-11-03T21:01:55.568Z,98878.00
2022-11-03T21:04:25.439Z,98883.00
2022-11-03T21:06:54.565Z,98887.00
2022-11-03T21:09:23.827Z,98881.00
2022-11-03T21:11:54.518Z,98885.00
2022-11-03T21:14:26.611Z,98893.00
2022-11-03T21:17:13.948Z,98883.00
2022-11-03T21:20:03.872Z,98891.00
2022-11-03T21:22:57.934Z,98897.00
2022-11-03T21:25:27.697Z,98897.00
2022-11-03T21:27:56.807Z,98896.00
2022-11-03T21:30:25.982Z,98903.00
2022-11-03T21:32:55.102Z,98901.00
2022-11-03T21:35:24.660Z,98909.00
2022-11-03T21:37:53.853Z,98909.00
2022-11-03T21:40:23.098Z,98914.00
2022-11-03T21:43:10.519Z,98914.00
2022-11-03T21:45:39.877Z,98916.00
2022-11-03T21:48:27.351Z,98911.00
2022-11-03T21:51:01.013Z,98921.00
2022-11-03T21:53:33.399Z,98918.00
2022-11-03T21:56:02.498Z,98924.00
2022-11-03T21:58:32.340Z,98930.00
2022-11-03T22:01:05.963Z,98932.00
2022-11-03T22:03:36.297Z,98938.00
2022-11-03T22:06:11.398Z,98935.00
2022-11-03T22:08:40.779Z,98936.00
2022-11-03T22:11:25.065Z,98936.00
2022-11-03T22:14:02.857Z,98939.00
2022-11-03T22:16:38.260Z,98936.00
2022-11-03T22:19:39.269Z,98944.00
2022-11-03T22:22:33.451Z,98951.00
2022-11-03T22:25:20.886Z,98941.00
2022-11-03T22:27:49.988Z,98952.00
2022-11-03T22:30:37.550Z,98952.00
2022-11-03T22:33:06.693Z,98959.00
2022-11-03T22:35:54.404Z,98962.00
2022-11-03T22:38:43.416Z,98965.00
2022-11-03T22:41:30.584Z,98971.00
2022-11-03T22:44:17.763Z,98968.00
2022-11-03T22:46:46.841Z,98972.00
2022-11-03T22:49:15.934Z,98970.00
2022-11-03T22:51:44.974Z,98981.00
2022-11-03T22:54:14.099Z,98994.00
2022-11-03T22:56:43.237Z,98992.00
2022-11-03T22:59:13.805Z,99002.00
2022-11-03T23:01:43.010Z,98999.00
2022-11-03T23:04:12.354Z,99009.00
2022-11-03T23:06:42.189Z,99002.00
2022-11-03T23:09:12.853Z,99008.00
2022-11-03T23:11:41.990Z,99002.00
2022-11-03T23:14:12.913Z,99009.00
2022-11-03T23:16:45.392Z,99017.00
2022-11-03T23:19:35.227Z,99018.00
2022-11-03T23:22:04.328Z,99030.00
2022-11-03T23:24:51.812Z,99027.00
2022-11-03T23:27:20.936Z,99031.00
2022-11-03T23:29:49.985Z,99032.00
2022-11-03T23:32:19.040Z,99040.00
2022-11-03T23:34:48.225Z,99055.00
2022-11-03T23:37:17.339Z,99059.00
2022-11-03T23:39:46.385Z,99052.00
2022-11-03T23:42:15.492Z,99062.00
2022-11-03T23:45:19.710Z,99061.00
2022-11-03T23:48:07.098Z,99070.00
2022-11-03T23:50:36.335Z,99073.00
2022-11-03T23:53:05.417Z,99077.00
2022-11-03T23:55:55.348Z,99082.00
2022-11-03T23:58:24.482Z,99087.00
